sensor_id;sensor_type;location;lat;lon;timestamp;temperature;humidity
6536;DHT22;34330;52.08032700;5.40923460;2023-10-19T00:00:32;13.70;93.30
6536;DHT22;34330;52.08032700;5.40923460;2023-10-19T00:03:00;13.60;93.40
6536;DHT22;34330;52.08032700;5.40923460;2023-10-19T00:05:30;13.70;93.40
6536;DHT22;34330;52.08032700;5.40923460;2023-10-19T00:08:00;13.70;93.30
6536;DHT22;34330;52.08032700;5.40923460;2023-10-19T00:10:33;13.70;93.50
6536;DHT22;34330;52.08032700;5.40923460;2023-10-19T00:13:02;13.70;93.60
6536;DHT22;34330;52.08032700;5.40923460;2023-10-19T00:15:31;13.70;93.60
6536;DHT22;34330;52.08032700;5.40923460;2023-10-19T00:18:01;13.70;93.60
6536;DHT22;34330;52.08032700;5.40923460;2023-10-19T00:20:34;13.80;93.70
6536;DHT22;34330;52.08032700;5.40923460;2023-10-19T00:23:17;13.80;93.70
6536;DHT22;34330;52.08032700;5.40923460;2023-10-19T00:25:45;13.80;93.80
6536;DHT22;34330;52.08032700;5.40923460;2023-10-19T00:28:18;13.80;93.80
6536;DHT22;34330;52.08032700;5.40923460;2023-10-19T00:30:46;13.80;93.70
6536;DHT22;34330;52.08032700;5.40923460;2023-10-19T00:33:15;13.80;93.90
6536;DHT22;34330;52.08032700;5.40923460;2023-10-19T00:35:47;13.80;94.00
6536;DHT22;34330;52.08032700;5.40923460;2023-10-19T00:38:19;13.90;94.10
6536;DHT22;34330;52.08032700;5.40923460;2023-10-19T00:41:07;13.90;94.20
6536;DHT22;34330;52.08032700;5.40923460;2023-10-19T00:43:39;13.90;94.10
6536;DHT22;34330;52.08032700;5.40923460;2023-10-19T00:46:11;13.90;94.20
6536;DHT22;34330;52.08032700;5.40923460;2023-10-19T00:48:54;14.00;94.40
6536;DHT22;34330;52.08032700;5.40923460;2023-10-19T00:51:27;14.00;94.50
6536;DHT22;34330;52.08032700;5.40923460;2023-10-19T00:54:10;14.00;94.60
6536;DHT22;34330;52.08032700;5.40923460;2023-10-19T00:56:46;14.00;94.60
6536;DHT22;34330;52.08032700;5.40923460;2023-10-19T00:59:18;14.10;94.70
6536;DHT22;34330;52.08032700;5.40923460;2023-10-19T01:01:50;14.10;94.80
6536;DHT22;34330;52.08032700;5.40923460;2023-10-19T01:04:21;14.10;94.80
6536;DHT22;34330;52.08032700;5.40923460;2023-10-19T01:06:50;14.20;94.90
6536;DHT22;34330;52.08032700;5.40923460;2023-10-19T01:09:36;14.20;95.00
6536;DHT22;34330;52.08032700;5.40923460;2023-10-19T01:12:05;14.30;95.10
6536;DHT22;34330;52.08032700;5.40923460;2023-10-19T01:15:01;14.30;95.20
6536;DHT22;34330;52.08032700;5.40923460;2023-10-19T01:17:29;14.40;95.70
6536;DHT22;34330;52.08032700;5.40923460;2023-10-19T01:19:58;14.40;95.50
6536;DHT22;34330;52.08032700;5.40923460;2023-10-19T01:22:26;13.90;95.20
6536;DHT22;34330;52.08032700;5.40923460;2023-10-19T01:24:56;14.60;95.60
6536;DHT22;34330;52.08032700;5.40923460;2023-10-19T01:27:25;14.60;95.70
6536;DHT22;34330;52.08032700;5.40923460;2023-10-19T01:29:53;14.60;95.70
6536;DHT22;34330;52.08032700;5.40923460;2023-10-19T01:32:29;14.80;95.80
6536;DHT22;34330;52.08032700;5.40923460;2023-10-19T01:34:57;14.70;95.80
6536;DHT22;34330;52.08032700;5.40923460;2023-10-19T01:37:25;14.80;95.60
6536;DHT22;34330;52.08032700;5.40923460;2023-10-19T01:39:52;14.80;95.70
6536;DHT22;34330;52.08032700;5.40923460;2023-10-19T01:42:21;14.90;95.80
6536;DHT22;34330;52.08032700;5.40923460;2023-10-19T01:44:48;14.90;95.70
6536;DHT22;34330;52.08032700;5.40923460;2023-10-19T01:47:16;15.00;95.90
6536;DHT22;34330;52.08032700;5.40923460;2023-10-19T01:49:47;15.00;95.90
6536;DHT22;34330;52.08032700;5.40923460;2023-10-19T01:52:19;15.00;95.90
6536;DHT22;34330;52.08032700;5.40923460;2023-10-19T01:54:51;15.10;95.90
6536;DHT22;34330;52.08032700;5.40923460;2023-10-19T01:57:27;15.10;95.90
6536;DHT22;34330;52.08032700;5.40923460;2023-10-19T01:59:55;15.10;95.90
6536;DHT22;34330;52.08032700;5.40923460;2023-10-19T02:02:22;15.20;96.00
6536;DHT22;34330;52.08032700;5.40923460;2023-10-19T02:04:50;15.30;96.00
6536;DHT22;34330;52.08032700;5.40923460;2023-10-19T02:07:19;15.20;96.10
6536;DHT22;34330;52.08032700;5.40923460;2023-10-19T02:09:48;15.30;96.10
6536;DHT22;34330;52.08032700;5.40923460;2023-10-19T02:12:15;15.30;96.10
6536;DHT22;34330;52.08032700;5.40923460;2023-10-19T02:14:46;15.40;96.50
6536;DHT22;34330;52.08032700;5.40923460;2023-10-19T02:17:13;15.40;96.30
6536;DHT22;34330;52.08032700;5.40923460;2023-10-19T02:19:44;15.40;96.20
6536;DHT22;34330;52.08032700;5.40923460;2023-10-19T02:22:13;15.50;96.30
6536;DHT22;34330;52.08032700;5.40923460;2023-10-19T02:24:41;15.50;96.30
6536;DHT22;34330;52.08032700;5.40923460;2023-10-19T02:27:09;15.60;96.40
6536;DHT22;34330;52.08032700;5.40923460;2023-10-19T02:29:46;15.60;96.40
6536;DHT22;34330;52.08032700;5.40923460;2023-10-19T02:32:13;15.60;96.70
6536;DHT22;34330;52.08032700;5.40923460;2023-10-19T02:34:46;15.60;96.70
6536;DHT22;34330;52.08032700;5.40923460;2023-10-19T02:37:13;15.70;96.30
6536;DHT22;34330;52.08032700;5.40923460;2023-10-19T02:39:43;15.70;96.70
6536;DHT22;34330;52.08032700;5.40923460;2023-10-19T02:42:10;15.80;96.50
6536;DHT22;34330;52.08032700;5.40923460;2023-10-19T02:44:38;15.80;96.60
6536;DHT22;34330;52.08032700;5.40923460;2023-10-19T02:47:08;15.90;96.70
6536;DHT22;34330;52.08032700;5.40923460;2023-10-19T02:49:36;14.80;96.20
6536;DHT22;34330;52.08032700;5.40923460;2023-10-19T02:52:05;15.90;96.70
6536;DHT22;34330;52.08032700;5.40923460;2023-10-19T02:54:33;15.90;96.70
6536;DHT22;34330;52.08032700;5.40923460;2023-10-19T02:57:01;15.90;96.70
6536;DHT22;34330;52.08032700;5.40923460;2023-10-19T02:59:36;16.00;96.70
6536;DHT22;34330;52.08032700;5.40923460;2023-10-19T03:02:05;16.10;96.90
6536;DHT22;34330;52.08032700;5.40923460;2023-10-19T03:04:36;16.00;97.00
6536;DHT22;34330;52.08032700;5.40923460;2023-10-19T03:07:04;16.10;96.70
6536;DHT22;34330;52.08032700;5.40923460;2023-10-19T03:09:31;16.10;96.70
6536;DHT22;34330;52.08032700;5.40923460;2023-10-19T03:12:03;16.20;96.70
6536;DHT22;34330;52.08032700;5.40923460;2023-10-19T03:14:32;16.10;96.70
6536;DHT22;34330;52.08032700;5.40923460;2023-10-19T03:17:00;16.20;96.70
6536;DHT22;34330;52.08032700;5.40923460;2023-10-19T03:19:28;16.20;96.70
6536;DHT22;34330;52.08032700;5.40923460;2023-10-19T03:21:58;16.20;96.70
6536;DHT22;34330;52.08032700;5.40923460;2023-10-19T03:24:27;16.20;96.70
6536;DHT22;34330;52.08032700;5.40923460;2023-10-19T03:27:03;16.30;96.80
6536;DHT22;34330;52.08032700;5.40923460;2023-10-19T03:29:39;16.30;96.90
6536;DHT22;34330;52.08032700;5.40923460;2023-10-19T03:32:07;16.30;96.80
6536;DHT22;34330;52.08032700;5.40923460;2023-10-19T03:34:36;16.30;96.90
6536;DHT22;34330;52.08032700;5.40923460;2023-10-19T03:37:15;16.40;96.90
6536;DHT22;34330;52.08032700;5.40923460;2023-10-19T03:39:46;16.40;97.20
6536;DHT22;34330;52.08032700;5.40923460;2023-10-19T03:42:17;16.40;96.90
6536;DHT22;34330;52.08032700;5.40923460;2023-10-19T03:44:47;16.40;97.10
6536;DHT22;34330;52.08032700;5.40923460;2023-10-19T03:47:20;16.40;97.00
6536;DHT22;34330;52.08032700;5.40923460;2023-10-19T03:49:53;16.50;97.00
6536;DHT22;34330;52.08032700;5.40923460;2023-10-19T03:52:22;16.50;97.10
6536;DHT22;34330;52.08032700;5.40923460;2023-10-19T03:54:53;16.50;97.10
6536;DHT22;34330;52.08032700;5.40923460;2023-10-19T03:57:21;16.50;97.10
6536;DHT22;34330;52.08032700;5.40923460;2023-10-19T03:59:52;16.50;97.10
6536;DHT22;34330;52.08032700;5.40923460;2023-10-19T04:02:23;16.60;97.20
6536;DHT22;34330;52.08032700;5.40923460;2023-10-19T04:04:52;16.60;97.20
6536;DHT22;34330;52.08032700;5.40923460;2023-10-19T04:07:24;16.60;97.20
6536;DHT22;34330;52.08032700;5.40923460;2023-10-19T04:09:55;16.60;97.20
6536;DHT22;34330;52.08032700;5.40923460;2023-10-19T04:12:37;16.70;97.30
6536;DHT22;34330;52.08032700;5.40923460;2023-10-19T04:15:10;16.70;97.30
6536;DHT22;34330;52.08032700;5.40923460;2023-10-19T04:17:39;16.70;97.50
6536;DHT22;34330;52.08032700;5.40923460;2023-10-19T04:20:10;16.70;97.30
6536;DHT22;34330;52.08032700;5.40923460;2023-10-19T04:22:54;16.70;97.40
6536;DHT22;34330;52.08032700;5.40923460;2023-10-19T04:25:23;16.80;97.40
6536;DHT22;34330;52.08032700;5.40923460;2023-10-19T04:27:53;16.80;97.20
6536;DHT22;34330;52.08032700;5.40923460;2023-10-19T04:30:24;16.80;97.20
6536;DHT22;34330;52.08032700;5.40923460;2023-10-19T04:32:53;16.80;97.10
6536;DHT22;34330;52.08032700;5.40923460;2023-10-19T04:35:25;16.80;97.00
6536;DHT22;34330;52.08032700;5.40923460;2023-10-19T04:37:58;16.80;97.00
6536;DHT22;34330;52.08032700;5.40923460;2023-10-19T04:40:27;16.80;96.90
6536;DHT22;34330;52.08032700;5.40923460;2023-10-19T04:42:56;16.80;96.70
6536;DHT22;34330;52.08032700;5.40923460;2023-10-19T04:45:24;16.80;96.80
6536;DHT22;34330;52.08032700;5.40923460;2023-10-19T04:47:53;16.80;96.80
6536;DHT22;34330;52.08032700;5.40923460;2023-10-19T04:50:22;16.80;96.70
6536;DHT22;34330;52.08032700;5.40923460;2023-10-19T04:52:50;16.80;96.60
6536;DHT22;34330;52.08032700;5.40923460;2023-10-19T04:55:19;16.80;96.50
6536;DHT22;34330;52.08032700;5.40923460;2023-10-19T04:57:47;16.80;96.60
6536;DHT22;34330;52.08032700;5.40923460;2023-10-19T05:00:18;16.80;96.60
6536;DHT22;34330;52.08032700;5.40923460;2023-10-19T05:02:47;16.80;96.80
6536;DHT22;34330;52.08032700;5.40923460;2023-10-19T05:05:16;16.80;96.80
6536;DHT22;34330;52.08032700;5.40923460;2023-10-19T05:07:47;16.80;96.80
6536;DHT22;34330;52.08032700;5.40923460;2023-10-19T05:10:16;16.80;96.90
6536;DHT22;34330;52.08032700;5.40923460;2023-10-19T05:12:45;16.80;96.80
6536;DHT22;34330;52.08032700;5.40923460;2023-10-19T05:15:13;16.80;96.80
6536;DHT22;34330;52.08032700;5.40923460;2023-10-19T05:17:45;16.80;96.90
6536;DHT22;34330;52.08032700;5.40923460;2023-10-19T05:20:14;16.80;97.00
6536;DHT22;34330;52.08032700;5.40923460;2023-10-19T05:22:45;16.80;96.90
6536;DHT22;34330;52.08032700;5.40923460;2023-10-19T05:25:13;16.90;97.00
6536;DHT22;34330;52.08032700;5.40923460;2023-10-19T05:27:41;16.80;96.90
6536;DHT22;34330;52.08032700;5.40923460;2023-10-19T05:30:14;16.90;97.00
6536;DHT22;34330;52.08032700;5.40923460;2023-10-19T05:32:42;16.90;97.00
6536;DHT22;34330;52.08032700;5.40923460;2023-10-19T05:35:10;16.90;96.80
6536;DHT22;34330;52.08032700;5.40923460;2023-10-19T05:37:40;16.90;97.00
6536;DHT22;34330;52.08032700;5.40923460;2023-10-19T05:40:10;16.90;97.00
6536;DHT22;34330;52.08032700;5.40923460;2023-10-19T05:42:41;16.90;97.00
6536;DHT22;34330;52.08032700;5.40923460;2023-10-19T05:45:19;17.00;97.00
6536;DHT22;34330;52.08032700;5.40923460;2023-10-19T05:47:47;16.90;97.00
6536;DHT22;34330;52.08032700;5.40923460;2023-10-19T05:50:15;17.00;97.00
6536;DHT22;34330;52.08032700;5.40923460;2023-10-19T05:52:43;17.00;97.00
6536;DHT22;34330;52.08032700;5.40923460;2023-10-19T05:55:12;17.00;96.70
6536;DHT22;34330;52.08032700;5.40923460;2023-10-19T05:57:40;17.00;97.00
6536;DHT22;34330;52.08032700;5.40923460;2023-10-19T06:00:09;17.00;97.00
6536;DHT22;34330;52.08032700;5.40923460;2023-10-19T06:02:46;17.00;97.00
6536;DHT22;34330;52.08032700;5.40923460;2023-10-19T06:05:16;17.00;97.20
6536;DHT22;34330;52.08032700;5.40923460;2023-10-19T06:07:44;17.00;96.90
6536;DHT22;34330;52.08032700;5.40923460;2023-10-19T06:10:14;17.10;97.00
6536;DHT22;34330;52.08032700;5.40923460;2023-10-19T06:12:44;17.10;97.00
6536;DHT22;34330;52.08032700;5.40923460;2023-10-19T06:15:13;17.10;96.80
6536;DHT22;34330;52.08032700;5.40923460;2023-10-19T06:17:43;17.10;97.00
6536;DHT22;34330;52.08032700;5.40923460;2023-10-19T06:20:13;17.10;97.00
6536;DHT22;34330;52.08032700;5.40923460;2023-10-19T06:22:51;17.10;96.90
6536;DHT22;34330;52.08032700;5.40923460;2023-10-19T06:25:20;17.10;96.90
6536;DHT22;34330;52.08032700;5.40923460;2023-10-19T06:27:49;17.10;96.90
6536;DHT22;34330;52.08032700;5.40923460;2023-10-19T06:30:19;17.10;96.90
6536;DHT22;34330;52.08032700;5.40923460;2023-10-19T06:32:54;17.10;97.00
6536;DHT22;34330;52.08032700;5.40923460;2023-10-19T06:35:23;17.10;97.00
6536;DHT22;34330;52.08032700;5.40923460;2023-10-19T06:37:53;17.10;96.80
6536;DHT22;34330;52.08032700;5.40923460;2023-10-19T06:40:24;17.20;96.80
6536;DHT22;34330;52.08032700;5.40923460;2023-10-19T06:42:55;17.20;96.90
6536;DHT22;34330;52.08032700;5.40923460;2023-10-19T06:45:23;17.20;96.90
6536;DHT22;34330;52.08032700;5.40923460;2023-10-19T06:47:53;17.20;96.80
6536;DHT22;34330;52.08032700;5.40923460;2023-10-19T06:50:23;17.10;96.80
6536;DHT22;34330;52.08032700;5.40923460;2023-10-19T06:52:52;17.10;96.90
6536;DHT22;34330;52.08032700;5.40923460;2023-10-19T06:55:21;17.10;96.90
6536;DHT22;34330;52.08032700;5.40923460;2023-10-19T06:57:52;17.10;96.90
6536;DHT22;34330;52.08032700;5.40923460;2023-10-19T07:00:22;17.20;96.90
6536;DHT22;34330;52.08032700;5.40923460;2023-10-19T07:02:57;17.10;97.00
6536;DHT22;34330;52.08032700;5.40923460;2023-10-19T07:05:27;17.20;97.10
6536;DHT22;34330;52.08032700;5.40923460;2023-10-19T07:07:59;17.20;97.00
6536;DHT22;34330;52.08032700;5.40923460;2023-10-19T07:10:28;17.20;97.00
6536;DHT22;34330;52.08032700;5.40923460;2023-10-19T07:12:57;17.20;97.00
6536;DHT22;34330;52.08032700;5.40923460;2023-10-19T07:15:25;17.20;96.90
6536;DHT22;34330;52.08032700;5.40923460;2023-10-19T07:17:56;17.20;97.00
6536;DHT22;34330;52.08032700;5.40923460;2023-10-19T07:20:25;17.20;97.10
6536;DHT22;34330;52.08032700;5.40923460;2023-10-19T07:22:54;17.20;96.90
6536;DHT22;34330;52.08032700;5.40923460;2023-10-19T07:25:23;17.20;97.10
6536;DHT22;34330;52.08032700;5.40923460;2023-10-19T07:27:53;17.30;97.10
6536;DHT22;34330;52.08032700;5.40923460;2023-10-19T07:30:21;17.30;97.20
6536;DHT22;34330;52.08032700;5.40923460;2023-10-19T07:32:53;17.30;97.20
6536;DHT22;34330;52.08032700;5.40923460;2023-10-19T07:35:27;17.40;97.30
6536;DHT22;34330;52.08032700;5.40923460;2023-10-19T07:38:01;17.30;97.20
6536;DHT22;34330;52.08032700;5.40923460;2023-10-19T07:40:30;17.30;97.30
6536;DHT22;34330;52.08032700;5.40923460;2023-10-19T07:42:59;17.40;97.30
6536;DHT22;34330;52.08032700;5.40923460;2023-10-19T07:45:27;17.40;97.30
6536;DHT22;34330;52.08032700;5.40923460;2023-10-19T07:47:55;17.40;97.30
6536;DHT22;34330;52.08032700;5.40923460;2023-10-19T07:50:23;17.50;97.40
6536;DHT22;34330;52.08032700;5.40923460;2023-10-19T07:52:54;17.40;97.40
6536;DHT22;34330;52.08032700;5.40923460;2023-10-19T07:55:22;17.50;97.50
6536;DHT22;34330;52.08032700;5.40923460;2023-10-19T07:57:51;17.50;97.50
6536;DHT22;34330;52.08032700;5.40923460;2023-10-19T08:00:20;17.50;97.40
6536;DHT22;34330;52.08032700;5.40923460;2023-10-19T08:02:51;17.50;97.40
6536;DHT22;34330;52.08032700;5.40923460;2023-10-19T08:05:21;17.60;97.40
6536;DHT22;34330;52.08032700;5.40923460;2023-10-19T08:07:49;17.60;97.40
6536;DHT22;34330;52.08032700;5.40923460;2023-10-19T08:10:19;17.60;97.40
6536;DHT22;34330;52.08032700;5.40923460;2023-10-19T08:12:48;17.60;97.50
6536;DHT22;34330;52.08032700;5.40923460;2023-10-19T08:15:17;17.60;97.40
6536;DHT22;34330;52.08032700;5.40923460;2023-10-19T08:17:48;17.70;97.40
6536;DHT22;34330;52.08032700;5.40923460;2023-10-19T08:20:17;17.70;97.40
6536;DHT22;34330;52.08032700;5.40923460;2023-10-19T08:22:51;17.70;97.30
6536;DHT22;34330;52.08032700;5.40923460;2023-10-19T08:25:21;17.80;97.40
6536;DHT22;34330;52.08032700;5.40923460;2023-10-19T08:27:50;17.80;97.40
6536;DHT22;34330;52.08032700;5.40923460;2023-10-19T08:30:20;17.80;97.40
6536;DHT22;34330;52.08032700;5.40923460;2023-10-19T08:32:53;17.80;97.40
6536;DHT22;34330;52.08032700;5.40923460;2023-10-19T08:35:22;17.80;97.40
6536;DHT22;34330;52.08032700;5.40923460;2023-10-19T08:37:53;17.90;97.40
6536;DHT22;34330;52.08032700;5.40923460;2023-10-19T08:40:24;17.90;97.50
6536;DHT22;34330;52.08032700;5.40923460;2023-10-19T08:42:54;17.90;97.50
6536;DHT22;34330;52.08032700;5.40923460;2023-10-19T08:45:22;18.10;97.50
6536;DHT22;34330;52.08032700;5.40923460;2023-10-19T08:47:54;17.90;97.40
6536;DHT22;34330;52.08032700;5.40923460;2023-10-19T08:50:24;18.00;97.50
6536;DHT22;34330;52.08032700;5.40923460;2023-10-19T08:52:53;18.00;97.40
6536;DHT22;34330;52.08032700;5.40923460;2023-10-19T08:55:23;18.00;97.50
6536;DHT22;34330;52.08032700;5.40923460;2023-10-19T08:58:11;18.00;97.50
6536;DHT22;34330;52.08032700;5.40923460;2023-10-19T09:00:44;18.00;97.40
6536;DHT22;34330;52.08032700;5.40923460;2023-10-19T09:03:15;18.10;97.50
6536;DHT22;34330;52.08032700;5.40923460;2023-10-19T09:05:47;18.10;97.50
6536;DHT22;34330;52.08032700;5.40923460;2023-10-19T09:08:16;18.10;97.60
6536;DHT22;34330;52.08032700;5.40923460;2023-10-19T09:10:48;18.20;97.70
6536;DHT22;34330;52.08032700;5.40923460;2023-10-19T09:13:18;18.20;97.70
6536;DHT22;34330;52.08032700;5.40923460;2023-10-19T09:15:49;18.30;97.70
6536;DHT22;34330;52.08032700;5.40923460;2023-10-19T09:18:22;18.30;97.80
6536;DHT22;34330;52.08032700;5.40923460;2023-10-19T09:20:52;18.40;98.00
6536;DHT22;34330;52.08032700;5.40923460;2023-10-19T09:23:29;18.40;97.80
6536;DHT22;34330;52.08032700;5.40923460;2023-10-19T09:26:01;18.50;97.90
6536;DHT22;34330;52.08032700;5.40923460;2023-10-19T09:28:30;18.50;97.90
6536;DHT22;34330;52.08032700;5.40923460;2023-10-19T09:31:01;18.60;97.90
6536;DHT22;34330;52.08032700;5.40923460;2023-10-19T09:33:33;18.70;98.00
6536;DHT22;34330;52.08032700;5.40923460;2023-10-19T09:36:03;18.70;98.00
6536;DHT22;34330;52.08032700;5.40923460;2023-10-19T09:38:39;18.80;97.90
6536;DHT22;34330;52.08032700;5.40923460;2023-10-19T09:41:12;18.90;97.80
6536;DHT22;34330;52.08032700;5.40923460;2023-10-19T09:43:43;18.90;97.70
6536;DHT22;34330;52.08032700;5.40923460;2023-10-19T09:46:12;19.00;97.70
6536;DHT22;34330;52.08032700;5.40923460;2023-10-19T09:48:41;19.00;97.60
6536;DHT22;34330;52.08032700;5.40923460;2023-10-19T09:51:16;19.10;97.60
6536;DHT22;34330;52.08032700;5.40923460;2023-10-19T09:53:49;19.10;97.40
6536;DHT22;34330;52.08032700;5.40923460;2023-10-19T09:56:30;19.20;97.60
6536;DHT22;34330;52.08032700;5.40923460;2023-10-19T09:59:06;19.20;97.50
6536;DHT22;34330;52.08032700;5.40923460;2023-10-19T10:02:06;19.30;97.50
6536;DHT22;34330;52.08032700;5.40923460;2023-10-19T10:04:35;19.30;97.70
6536;DHT22;34330;52.08032700;5.40923460;2023-10-19T10:07:05;19.40;97.70
6536;DHT22;34330;52.08032700;5.40923460;2023-10-19T10:09:36;19.50;97.60
6536;DHT22;34330;52.08032700;5.40923460;2023-10-19T10:12:19;19.50;97.40
6536;DHT22;34330;52.08032700;5.40923460;2023-10-19T10:14:56;19.60;97.60
6536;DHT22;34330;52.08032700;5.40923460;2023-10-19T10:17:25;19.60;97.50
6536;DHT22;34330;52.08032700;5.40923460;2023-10-19T10:19:55;19.70;97.30
6536;DHT22;34330;52.08032700;5.40923460;2023-10-19T10:22:26;19.70;97.20
6536;DHT22;34330;52.08032700;5.40923460;2023-10-19T10:24:55;19.80;97.20
6536;DHT22;34330;52.08032700;5.40923460;2023-10-19T10:27:25;19.90;97.20
6536;DHT22;34330;52.08032700;5.40923460;2023-10-19T10:29:54;19.90;97.00
6536;DHT22;34330;52.08032700;5.40923460;2023-10-19T10:32:44;20.00;97.00
6536;DHT22;34330;52.08032700;5.40923460;2023-10-19T10:38:13;20.10;96.70
6536;DHT22;34330;52.08032700;5.40923460;2023-10-19T10:40:48;20.10;96.60
6536;DHT22;34330;52.08032700;5.40923460;2023-10-19T10:43:19;20.20;96.50
6536;DHT22;34330;52.08032700;5.40923460;2023-10-19T10:45:48;20.20;96.50
6536;DHT22;34330;52.08032700;5.40923460;2023-10-19T10:48:17;20.20;96.40
6536;DHT22;34330;52.08032700;5.40923460;2023-10-19T10:50:46;20.20;96.20
6536;DHT22;34330;52.08032700;5.40923460;2023-10-19T10:53:14;20.20;96.20
6536;DHT22;34330;52.08032700;5.40923460;2023-10-19T10:55:43;20.30;96.20
6536;DHT22;34330;52.08032700;5.40923460;2023-10-19T10:58:15;20.30;96.20
6536;DHT22;34330;52.08032700;5.40923460;2023-10-19T11:00:46;20.30;96.60
6536;DHT22;34330;52.08032700;5.40923460;2023-10-19T11:03:17;20.30;96.20
6536;DHT22;34330;52.08032700;5.40923460;2023-10-19T11:05:45;20.30;96.20
6536;DHT22;34330;52.08032700;5.40923460;2023-10-19T11:08:15;20.30;96.30
6536;DHT22;34330;52.08032700;5.40923460;2023-10-19T11:10:48;20.30;96.40
6536;DHT22;34330;52.08032700;5.40923460;2023-10-19T11:13:18;20.30;96.60
6536;DHT22;34330;52.08032700;5.40923460;2023-10-19T11:15:53;20.40;96.60
6536;DHT22;34330;52.08032700;5.40923460;2023-10-19T11:18:29;20.40;96.60
6536;DHT22;34330;52.08032700;5.40923460;2023-10-19T11:20:57;20.50;96.60
6536;DHT22;34330;52.08032700;5.40923460;2023-10-19T11:23:41;20.50;96.50
6536;DHT22;34330;52.08032700;5.40923460;2023-10-19T11:26:13;20.90;96.70
6536;DHT22;34330;52.08032700;5.40923460;2023-10-19T11:28:41;20.60;96.30
6536;DHT22;34330;52.08032700;5.40923460;2023-10-19T11:31:19;20.70;96.30
6536;DHT22;34330;52.08032700;5.40923460;2023-10-19T11:33:49;20.70;96.20
6536;DHT22;34330;52.08032700;5.40923460;2023-10-19T11:36:19;21.00;96.30
6536;DHT22;34330;52.08032700;5.40923460;2023-10-19T11:38:49;20.80;96.10
6536;DHT22;34330;52.08032700;5.40923460;2023-10-19T11:41:18;21.00;96.40
6536;DHT22;34330;52.08032700;5.40923460;2023-10-19T11:43:47;20.90;96.40
6536;DHT22;34330;52.08032700;5.40923460;2023-10-19T11:46:18;21.00;96.70
6536;DHT22;34330;52.08032700;5.40923460;2023-10-19T11:48:49;21.10;96.60
6536;DHT22;34330;52.08032700;5.40923460;2023-10-19T11:51:17;21.20;96.60
6536;DHT22;34330;52.08032700;5.40923460;2023-10-19T11:53:46;21.20;96.30
6536;DHT22;34330;52.08032700;5.40923460;2023-10-19T11:56:14;21.30;95.90
6536;DHT22;34330;52.08032700;5.40923460;2023-10-19T11:58:43;21.40;95.30
6536;DHT22;34330;52.08032700;5.40923460;2023-10-19T12:01:14;21.50;95.20
6536;DHT22;34330;52.08032700;5.40923460;2023-10-19T12:03:46;21.60;95.10
6536;DHT22;34330;52.08032700;5.40923460;2023-10-19T12:06:15;21.60;94.90
6536;DHT22;34330;52.08032700;5.40923460;2023-10-19T12:08:47;21.60;94.90
6536;DHT22;34330;52.08032700;5.40923460;2023-10-19T12:11:15;21.70;94.60
6536;DHT22;34330;52.08032700;5.40923460;2023-10-19T12:13:44;21.70;94.80
6536;DHT22;34330;52.08032700;5.40923460;2023-10-19T12:16:13;21.60;94.40
6536;DHT22;34330;52.08032700;5.40923460;2023-10-19T12:18:46;21.70;94.20
6536;DHT22;34330;52.08032700;5.40923460;2023-10-19T12:21:15;21.60;94.10
6536;DHT22;34330;52.08032700;5.40923460;2023-10-19T12:23:45;21.60;94.00
6536;DHT22;34330;52.08032700;5.40923460;2023-10-19T12:26:18;21.50;94.10
6536;DHT22;34330;52.08032700;5.40923460;2023-10-19T12:28:46;21.50;94.10
6536;DHT22;34330;52.08032700;5.40923460;2023-10-19T12:31:16;21.60;94.10
6536;DHT22;34330;52.08032700;5.40923460;2023-10-19T12:33:47;21.50;94.00
6536;DHT22;34330;52.08032700;5.40923460;2023-10-19T12:36:15;21.50;94.00
6536;DHT22;34330;52.08032700;5.40923460;2023-10-19T12:38:58;21.40;94.10
6536;DHT22;34330;52.08032700;5.40923460;2023-10-19T12:41:27;21.40;94.10
6536;DHT22;34330;52.08032700;5.40923460;2023-10-19T12:43:56;21.40;94.10
6536;DHT22;34330;52.08032700;5.40923460;2023-10-19T12:46:27;21.40;94.10
6536;DHT22;34330;52.08032700;5.40923460;2023-10-19T12:48:58;21.30;94.10
6536;DHT22;34330;52.08032700;5.40923460;2023-10-19T12:51:26;21.30;94.20
6536;DHT22;34330;52.08032700;5.40923460;2023-10-19T12:53:55;21.30;94.20
6536;DHT22;34330;52.08032700;5.40923460;2023-10-19T12:56:23;21.20;94.10
6536;DHT22;34330;52.08032700;5.40923460;2023-10-19T12:58:51;21.20;94.00
6536;DHT22;34330;52.08032700;5.40923460;2023-10-19T13:01:21;21.20;94.00
6536;DHT22;34330;52.08032700;5.40923460;2023-10-19T13:03:49;21.10;93.90
6536;DHT22;34330;52.08032700;5.40923460;2023-10-19T13:06:19;21.10;94.00
6536;DHT22;34330;52.08032700;5.40923460;2023-10-19T13:08:47;21.10;94.00
6536;DHT22;34330;52.08032700;5.40923460;2023-10-19T13:11:15;21.00;94.00
6536;DHT22;34330;52.08032700;5.40923460;2023-10-19T13:13:45;21.00;94.10
6536;DHT22;34330;52.08032700;5.40923460;2023-10-19T13:16:14;21.50;94.30
6536;DHT22;34330;52.08032700;5.40923460;2023-10-19T13:18:43;21.00;94.10
6536;DHT22;34330;52.08032700;5.40923460;2023-10-19T13:21:12;21.20;94.40
6536;DHT22;34330;52.08032700;5.40923460;2023-10-19T13:23:45;20.90;94.40
6536;DHT22;34330;52.08032700;5.40923460;2023-10-19T13:26:13;20.90;94.40
6536;DHT22;34330;52.08032700;5.40923460;2023-10-19T13:28:45;20.80;94.60
6536;DHT22;34330;52.08032700;5.40923460;2023-10-19T13:31:14;20.80;94.70
6536;DHT22;34330;52.08032700;5.40923460;2023-10-19T13:33:48;20.80;94.80
6536;DHT22;34330;52.08032700;5.40923460;2023-10-19T13:36:16;20.70;94.90
6536;DHT22;34330;52.08032700;5.40923460;2023-10-19T13:38:47;20.80;95.00
6536;DHT22;34330;52.08032700;5.40923460;2023-10-19T13:41:15;20.70;95.00
6536;DHT22;34330;52.08032700;5.40923460;2023-10-19T13:43:45;20.70;95.00
6536;DHT22;34330;52.08032700;5.40923460;2023-10-19T13:46:14;20.50;95.10
6536;DHT22;34330;52.08032700;5.40923460;2023-10-19T13:48:48;20.50;95.40
6536;DHT22;34330;52.08032700;5.40923460;2023-10-19T13:51:17;20.50;95.30
6536;DHT22;34330;52.08032700;5.40923460;2023-10-19T13:53:47;20.50;95.40
6536;DHT22;34330;52.08032700;5.40923460;2023-10-19T13:56:16;20.40;95.40